createdAt,value
2017-08-06T00:01:00.541Z,69.93
2017-08-06T00:02:09.786Z,70.03
2017-08-06T00:03:19.020Z,69.93
2017-08-06T00:04:28.244Z,69.93
2017-08-06T00:05:37.151Z,70.03
2017-08-06T00:06:46.052Z,69.64
2017-08-06T00:07:54.958Z,69.93
2017-08-06T00:09:03.862Z,69.93
2017-08-06T00:10:12.769Z,69.93
2017-08-06T00:11:21.672Z,70.32
2017-08-06T00:12:30.589Z,70.42
2017-08-06T00:13:39.494Z,70.22
2017-08-06T00:14:48.401Z,69.9
2017-08-06T00:15:57.305Z,70.03
2017-08-06T00:17:06.228Z,69.64
2017-08-06T00:18:15.135Z,69.84
2017-08-06T00:19:24.029Z,69.93
2017-08-06T00:20:32.935Z,69.93
2017-08-06T00:21:42.160Z,70.03
2017-08-06T00:22:51.083Z,70.32
2017-08-06T00:23:59.986Z,70.03
2017-08-06T00:25:09.537Z,69.74
2017-08-06T00:26:18.436Z,70.12
2017-08-06T00:27:27.344Z,69.93
2017-08-06T00:28:36.249Z,70.12
2017-08-06T00:29:45.157Z,70.09
2017-08-06T00:30:54.053Z,70.03
2017-08-06T00:32:03.281Z,70.32
2017-08-06T00:33:12.502Z,70.22
2017-08-06T00:34:21.401Z,70.12
2017-08-06T00:35:30.306Z,70.42
2017-08-06T00:36:39.216Z,70.29
2017-08-06T00:37:48.120Z,70.03
2017-08-06T00:38:57.024Z,70.09
2017-08-06T00:40:05.925Z,69.93
2017-08-06T00:41:14.828Z,70.03
2017-08-06T00:42:24.054Z,69.93
2017-08-06T00:43:32.968Z,70.22
2017-08-06T00:44:41.865Z,70.09
2017-08-06T00:45:50.772Z,70.32
2017-08-06T00:47:00.000Z,70.42
2017-08-06T00:48:09.224Z,70.12
2017-08-06T00:49:18.128Z,70.39
2017-08-06T00:50:27.037Z,70.42
2017-08-06T00:51:35.942Z,70.39
2017-08-06T00:52:45.172Z,70.32
2017-08-06T00:53:54.077Z,70.22
2017-08-06T00:55:02.984Z,70.39
2017-08-06T00:56:11.905Z,70
2017-08-06T00:57:20.808Z,70.19
2017-08-06T00:58:29.710Z,70
2017-08-06T00:59:38.613Z,70.29
2017-08-06T01:00:47.519Z,70
2017-08-06T01:01:56.416Z,70.29
2017-08-06T01:03:05.336Z,70.09
2017-08-06T01:04:14.234Z,70
2017-08-06T01:05:23.145Z,70.19
2017-08-06T01:06:32.041Z,70.19
2017-08-06T01:07:40.946Z,70.39
2017-08-06T01:08:50.164Z,70.29
2017-08-06T01:09:59.073Z,70.19
2017-08-06T01:11:07.987Z,69.9
2017-08-06T01:12:16.890Z,70.19
2017-08-06T01:13:25.792Z,69.9
2017-08-06T01:14:34.696Z,70.19
2017-08-06T01:15:43.594Z,70.19
2017-08-06T01:16:52.495Z,70.19
2017-08-06T01:18:01.404Z,70.19
2017-08-06T01:19:10.301Z,70.19
2017-08-06T01:20:19.525Z,70.09
2017-08-06T01:21:28.422Z,70.39
2017-08-06T01:22:37.327Z,70.19
2017-08-06T01:23:46.227Z,69.9
2017-08-06T01:24:55.460Z,69.9
2017-08-06T01:26:04.680Z,70.29
2017-08-06T01:27:13.591Z,70
2017-08-06T01:28:22.501Z,70.19
2017-08-06T01:29:31.404Z,70.29
2017-08-06T01:30:40.305Z,70
2017-08-06T01:31:49.208Z,70
2017-08-06T01:32:58.437Z,70
2017-08-06T01:34:07.348Z,70.09
2017-08-06T01:35:16.581Z,69.8
2017-08-06T01:36:25.484Z,70
2017-08-06T01:37:34.714Z,70.19
2017-08-06T01:38:43.613Z,70.19
2017-08-06T01:39:52.517Z,70
2017-08-06T01:41:01.418Z,70
2017-08-06T01:42:10.329Z,70.19
2017-08-06T01:43:19.235Z,70.39
2017-08-06T01:44:28.134Z,70.19
2017-08-06T01:45:37.042Z,70.19
2017-08-06T01:46:45.947Z,70.19
2017-08-06T01:47:54.849Z,70.09
2017-08-06T01:49:03.747Z,69.9
2017-08-06T01:50:12.645Z,70.09
2017-08-06T01:51:21.557Z,70
2017-08-06T01:52:30.780Z,70
2017-08-06T01:53:40.007Z,69.9
2017-08-06T01:54:48.906Z,70.19
2017-08-06T01:55:57.820Z,70.19
2017-08-06T01:57:06.726Z,70
2017-08-06T01:58:15.643Z,70.19
2017-08-06T01:59:24.542Z,70.19
2017-08-06T02:00:33.448Z,70
2017-08-06T02:01:42.349Z,70.19
2017-08-06T02:02:51.252Z,70.19
2017-08-06T02:04:00.159Z,70.29
2017-08-06T02:05:09.070Z,70.19
2017-08-06T02:06:17.974Z,70.19
2017-08-06T02:07:26.894Z,70
2017-08-06T02:08:36.123Z,70
2017-08-06T02:09:45.021Z,70
2017-08-06T02:10:53.923Z,70
2017-08-06T02:12:02.823Z,70.19
2017-08-06T02:13:11.731Z,70.19
2017-08-06T02:14:20.635Z,70.19
2017-08-06T02:15:29.545Z,70.19
2017-08-06T02:16:38.444Z,70.19
2017-08-06T02:17:47.348Z,70.29
2017-08-06T02:18:56.250Z,70.19
2017-08-06T02:20:05.156Z,70
2017-08-06T02:21:14.059Z,70.29
2017-08-06T02:22:22.967Z,70.19
2017-08-06T02:23:32.200Z,70
2017-08-06T02:24:41.107Z,70.19
2017-08-06T02:25:50.010Z,70.19
2017-08-06T02:26:58.912Z,69.9
2017-08-06T02:28:07.816Z,70.19
2017-08-06T02:29:16.715Z,70
2017-08-06T02:30:25.620Z,70
2017-08-06T02:31:34.520Z,70.19
2017-08-06T02:32:43.432Z,69.86
2017-08-06T02:33:52.658Z,70.19
2017-08-06T02:35:01.891Z,69.9
2017-08-06T02:36:11.118Z,69.9
2017-08-06T02:37:20.026Z,70.09
2017-08-06T02:38:28.926Z,69.9
2017-08-06T02:39:37.844Z,70.06
2017-08-06T02:40:46.749Z,70.15
2017-08-06T02:41:55.654Z,70.19
2017-08-06T02:43:04.561Z,69.96
2017-08-06T02:44:13.462Z,70.19
2017-08-06T02:45:22.360Z,69.86
2017-08-06T02:46:31.275Z,70.15
2017-08-06T02:47:40.180Z,69.96
2017-08-06T02:48:49.094Z,70.06
2017-08-06T02:49:58.314Z,70
2017-08-06T02:51:07.225Z,70.15
2017-08-06T02:52:16.463Z,69.86
2017-08-06T02:53:25.386Z,70.15
2017-08-06T02:54:34.292Z,70.19
2017-08-06T02:55:43.198Z,70.25
2017-08-06T02:56:52.097Z,69.86
2017-08-06T02:58:01.003Z,69.96
2017-08-06T02:59:10.226Z,70.35
2017-08-06T03:00:19.127Z,70.09
2017-08-06T03:01:28.040Z,70.25
2017-08-06T03:02:37.266Z,69.96
2017-08-06T03:03:46.170Z,70.15
2017-08-06T03:04:55.387Z,70.06
2017-08-06T03:06:04.287Z,70.25
2017-08-06T03:07:13.193Z,70.25
2017-08-06T03:08:22.746Z,70.35
2017-08-06T03:09:31.655Z,69.96
2017-08-06T03:10:40.558Z,70.35
2017-08-06T03:11:49.459Z,69.96
2017-08-06T03:12:58.362Z,69.96
2017-08-06T03:14:07.269Z,70.06
2017-08-06T03:15:16.500Z,69.86
2017-08-06T03:16:25.725Z,69.96
2017-08-06T03:17:34.637Z,70.35
2017-08-06T03:18:43.540Z,70.06
2017-08-06T03:19:52.458Z,70.15
2017-08-06T03:21:01.358Z,70.15
2017-08-06T03:22:10.267Z,70.15
2017-08-06T03:23:19.172Z,70.15
2017-08-06T03:24:28.070Z,70.15
2017-08-06T03:25:36.975Z,70.15
2017-08-06T03:26:45.888Z,70.15
2017-08-06T03:27:54.791Z,69.96
2017-08-06T03:29:03.696Z,70.35
2017-08-06T03:30:12.604Z,69.96
2017-08-06T03:31:21.514Z,69.96
2017-08-06T03:32:30.422Z,70.06
2017-08-06T03:33:39.331Z,69.86
2017-08-06T03:34:48.240Z,70.15
2017-08-06T03:35:57.150Z,70.06
2017-08-06T03:37:06.378Z,69.96
2017-08-06T03:38:15.286Z,69.96
2017-08-06T03:39:24.188Z,70.15
2017-08-06T03:40:33.094Z,69.96
2017-08-06T03:41:41.998Z,70.15
2017-08-06T03:42:50.900Z,70.25
2017-08-06T03:44:00.140Z,70.15
2017-08-06T03:45:09.045Z,70.25
2017-08-06T03:46:17.954Z,70.15
2017-08-06T03:47:26.852Z,70.35
2017-08-06T03:48:35.760Z,70.15
2017-08-06T03:49:44.658Z,69.96
2017-08-06T03:50:53.577Z,70.06
2017-08-06T03:52:02.486Z,70.06
2017-08-06T03:53:11.395Z,69.96
2017-08-06T03:54:20.298Z,70.15
2017-08-06T03:55:29.208Z,70.06
2017-08-06T03:56:38.115Z,70.15
2017-08-06T03:57:47.021Z,69.96
2017-08-06T03:58:55.942Z,70.06
2017-08-06T04:00:04.842Z,69.76
2017-08-06T04:01:14.064Z,70.15
2017-08-06T04:02:22.971Z,70.06
2017-08-06T04:03:33.745Z,70.15
2017-08-06T04:04:43.651Z,69.96
2017-08-06T04:05:52.569Z,69.96
2017-08-06T04:07:01.472Z,69.96
2017-08-06T04:08:10.379Z,70.15
2017-08-06T04:09:19.600Z,69.96
2017-08-06T04:10:28.512Z,69.96
2017-08-06T04:11:37.413Z,69.86
2017-08-06T04:12:46.330Z,70.25
2017-08-06T04:13:55.240Z,70.15
2017-08-06T04:15:04.790Z,69.96
2017-08-06T04:16:14.013Z,70.15
2017-08-06T04:17:22.918Z,69.96
2017-08-06T04:18:31.824Z,69.83
2017-08-06T04:19:40.737Z,70.31
2017-08-06T04:20:49.640Z,70.25
2017-08-06T04:21:58.545Z,70.25
2017-08-06T04:23:07.453Z,69.93
2017-08-06T04:24:16.679Z,69.83
2017-08-06T04:25:25.584Z,70.35
2017-08-06T04:26:34.486Z,70.31
2017-08-06T04:27:43.389Z,69.93
2017-08-06T04:28:52.283Z,69.96
2017-08-06T04:30:01.190Z,70.21
2017-08-06T04:31:10.424Z,70.25
2017-08-06T04:32:19.321Z,70.06
2017-08-06T04:33:28.232Z,69.86
2017-08-06T04:34:37.137Z,70.31
2017-08-06T04:35:46.042Z,70.06
2017-08-06T04:36:54.936Z,70.25
2017-08-06T04:38:03.847Z,70.25
2017-08-06T04:39:12.760Z,70.31
2017-08-06T04:40:21.660Z,69.93
2017-08-06T04:41:30.580Z,69.54
2017-08-06T04:42:39.487Z,69.67
2017-08-06T04:43:48.717Z,69.86
2017-08-06T04:44:57.633Z,69.73
2017-08-06T04:46:06.911Z,69.73
2017-08-06T04:47:15.802Z,69.93
2017-08-06T04:48:24.708Z,69.83
2017-08-06T04:49:33.926Z,69.73
2017-08-06T04:50:42.830Z,69.83
2017-08-06T04:51:51.742Z,69.93
2017-08-06T04:53:00.646Z,69.83
2017-08-06T04:54:09.547Z,69.83
2017-08-06T04:55:18.452Z,69.83
2017-08-06T04:56:27.351Z,69.83
2017-08-06T04:57:36.256Z,69.83
2017-08-06T04:58:45.161Z,69.54
2017-08-06T04:59:54.380Z,69.83
2017-08-06T05:01:03.608Z,69.83
2017-08-06T05:02:12.539Z,69.83
2017-08-06T05:03:21.448Z,69.83
2017-08-06T05:04:30.367Z,69.83
2017-08-06T05:05:39.276Z,69.54
2017-08-06T05:06:48.171Z,69.54
2017-08-06T05:07:57.077Z,69.64
2017-08-06T05:09:05.998Z,69.93
2017-08-06T05:10:14.920Z,69.93
2017-08-06T05:11:23.819Z,69.93
2017-08-06T05:12:32.722Z,69.73
2017-08-06T05:13:41.637Z,69.83
2017-08-06T05:14:50.540Z,69.64
2017-08-06T05:15:59.451Z,69.83
2017-08-06T05:17:08.676Z,69.73
2017-08-06T05:18:17.588Z,69.64
2017-08-06T05:19:26.488Z,69.83
2017-08-06T05:20:35.392Z,69.83
2017-08-06T05:21:44.293Z,69.83
2017-08-06T05:22:53.203Z,70.03
2017-08-06T05:24:02.435Z,69.83
2017-08-06T05:25:11.335Z,69.54
2017-08-06T05:26:20.280Z,69.83
2017-08-06T05:27:29.184Z,69.64
2017-08-06T05:28:38.416Z,69.83
2017-08-06T05:29:47.643Z,69.83
2017-08-06T05:30:56.874Z,69.83
2017-08-06T05:32:05.772Z,69.93
2017-08-06T05:33:14.681Z,69.93
2017-08-06T05:34:24.222Z,69.83
2017-08-06T05:35:33.127Z,69.83
2017-08-06T05:36:42.029Z,69.93
2017-08-06T05:37:50.941Z,69.64
2017-08-06T05:38:59.846Z,69.54
2017-08-06T05:40:08.756Z,69.83
2017-08-06T05:41:17.655Z,69.64
2017-08-06T05:42:26.565Z,69.48
2017-08-06T05:43:35.464Z,69.44
2017-08-06T05:44:44.378Z,69.44
2017-08-06T05:45:53.283Z,69.54
2017-08-06T05:47:02.183Z,69.48
2017-08-06T05:48:11.086Z,69.48
2017-08-06T05:49:19.992Z,69.09
2017-08-06T05:50:28.924Z,69.28
2017-08-06T05:51:37.828Z,68.99
2017-08-06T05:52:46.738Z,68.89
2017-08-06T05:53:55.640Z,69.09
2017-08-06T05:55:04.868Z,69.28
2017-08-06T05:56:13.776Z,69.28
2017-08-06T05:57:22.680Z,69.38
2017-08-06T05:58:31.584Z,68.99
2017-08-06T05:59:40.501Z,68.89
2017-08-06T06:00:49.407Z,68.89
2017-08-06T06:01:58.319Z,68.31
2017-08-06T06:03:07.227Z,68.89
2017-08-06T06:04:16.132Z,68.7
2017-08-06T06:05:25.050Z,68.6
2017-08-06T06:06:33.955Z,68.41
2017-08-06T06:07:42.874Z,68.31
2017-08-06T06:08:51.771Z,68.79
2017-08-06T06:10:00.676Z,68.7
2017-08-06T06:11:09.577Z,68.79
2017-08-06T06:12:18.481Z,68.41
2017-08-06T06:13:27.382Z,68.7
2017-08-06T06:14:36.948Z,68.41
2017-08-06T06:15:46.173Z,68.6
2017-08-06T06:16:55.083Z,68.79
2017-08-06T06:18:03.990Z,68.31
2017-08-06T06:19:13.225Z,68.31
2017-08-06T06:20:22.125Z,68.41
2017-08-06T06:21:31.356Z,68.6
2017-08-06T06:22:40.262Z,68.41
2017-08-06T06:23:49.172Z,68.41
2017-08-06T06:24:58.074Z,68.51
2017-08-06T06:26:07.620Z,68.51
2017-08-06T06:27:16.544Z,68.31
2017-08-06T06:28:25.455Z,68.51
2017-08-06T06:29:34.687Z,68.41
2017-08-06T06:30:43.910Z,68.6
2017-08-06T06:31:52.826Z,68.6
2017-08-06T06:33:01.738Z,68.79
2017-08-06T06:34:10.651Z,69.09
2017-08-06T06:35:19.555Z,68.6
2017-08-06T06:36:28.453Z,68.6
2017-08-06T06:37:37.365Z,68.6
2017-08-06T06:38:46.594Z,68.41
2017-08-06T06:39:55.504Z,68.79
2017-08-06T06:41:04.426Z,68.41
2017-08-06T06:42:13.332Z,68.79
2017-08-06T06:43:22.561Z,68.6
2017-08-06T06:44:31.465Z,68.7
2017-08-06T06:45:40.377Z,68.51
2017-08-06T06:46:49.283Z,68.6
2017-08-06T06:47:58.521Z,68.6
2017-08-06T06:49:07.428Z,68.41
2017-08-06T06:50:16.351Z,68.7
2017-08-06T06:51:25.253Z,68.6
2017-08-06T06:52:34.491Z,68.89
2017-08-06T06:53:43.394Z,68.79
2017-08-06T06:54:52.306Z,68.89
2017-08-06T06:56:01.215Z,68.99
2017-08-06T06:57:10.126Z,68.99
2017-08-06T06:58:19.031Z,69.18
2017-08-06T06:59:28.261Z,69.09
2017-08-06T07:00:37.160Z,68.99
2017-08-06T07:01:46.078Z,68.89
2017-08-06T07:02:54.991Z,68.99
2017-08-06T07:04:03.899Z,69.38
2017-08-06T07:05:12.800Z,69.28
2017-08-06T07:06:21.717Z,68.99
2017-08-06T07:07:30.638Z,69.38
2017-08-06T07:08:39.535Z,69.28
2017-08-06T07:09:48.444Z,69.15
2017-08-06T07:10:57.343Z,69.18
2017-08-06T07:12:06.251Z,69.18
2017-08-06T07:13:15.163Z,69.18
2017-08-06T07:14:24.078Z,68.99
2017-08-06T07:15:32.981Z,69.18
2017-08-06T07:16:41.909Z,69.28
2017-08-06T07:17:50.811Z,68.99
2017-08-06T07:19:00.038Z,68.99
2017-08-06T07:20:08.940Z,68.89
2017-08-06T07:21:17.842Z,68.99
2017-08-06T07:22:26.754Z,68.79
2017-08-06T07:23:35.663Z,69.09
2017-08-06T07:24:44.563Z,68.89
2017-08-06T07:25:53.465Z,68.89
2017-08-06T07:27:02.371Z,68.89
2017-08-06T07:28:11.271Z,68.99
2017-08-06T07:29:20.176Z,68.79
2017-08-06T07:30:29.101Z,69.09
2017-08-06T07:31:38.004Z,68.79
2017-08-06T07:32:46.906Z,68.79
2017-08-06T07:33:55.812Z,69.09
2017-08-06T07:35:05.044Z,68.7
2017-08-06T07:36:13.950Z,68.41
2017-08-06T07:37:22.861Z,68.41
2017-08-06T07:38:31.761Z,68.6
2017-08-06T07:39:40.663Z,68.6
2017-08-06T07:40:49.569Z,68.89
2017-08-06T07:41:58.472Z,68.7
2017-08-06T07:43:07.387Z,68.6
2017-08-06T07:44:16.284Z,68.51
2017-08-06T07:45:25.197Z,68.7
2017-08-06T07:46:34.099Z,68.51
2017-08-06T07:47:43.015Z,68.6
2017-08-06T07:48:51.915Z,68.79
2017-08-06T07:50:00.841Z,68.6
2017-08-06T07:51:09.741Z,68.6
2017-08-06T07:52:18.655Z,68.7
2017-08-06T07:53:27.557Z,68.7
2017-08-06T07:54:36.468Z,68.79
2017-08-06T07:55:45.376Z,68.7
2017-08-06T07:56:54.279Z,68.6
2017-08-06T07:58:03.190Z,68.79
2017-08-06T07:59:12.089Z,68.41
2017-08-06T08:00:20.993Z,68.79
2017-08-06T08:01:29.895Z,68.79
2017-08-06T08:02:38.798Z,68.51
2017-08-06T08:03:47.708Z,68.51
2017-08-06T08:04:56.621Z,68.41
2017-08-06T08:06:05.525Z,68.41
2017-08-06T08:07:14.430Z,68.6
2017-08-06T08:08:23.328Z,68.83
2017-08-06T08:09:32.231Z,68.79
2017-08-06T08:10:41.144Z,68.7
2017-08-06T08:11:50.053Z,68.6
2017-08-06T08:12:58.953Z,68.7
2017-08-06T08:14:07.857Z,68.6
2017-08-06T08:15:16.750Z,68.41
2017-08-06T08:16:25.653Z,68.31
2017-08-06T08:17:34.560Z,68.63
2017-08-06T08:18:43.469Z,68.41
2017-08-06T08:19:52.369Z,68.73
2017-08-06T08:21:01.270Z,68.54
2017-08-06T08:22:10.188Z,68.44
2017-08-06T08:23:19.094Z,68.51
2017-08-06T08:24:27.999Z,68.73
2017-08-06T08:25:36.906Z,68.54
2017-08-06T08:26:45.814Z,68.51
2017-08-06T08:27:54.716Z,68.54
2017-08-06T08:29:03.624Z,68.6
2017-08-06T08:30:12.530Z,68.54
2017-08-06T08:31:21.440Z,68.73
2017-08-06T08:32:30.352Z,68.51
2017-08-06T08:33:39.254Z,68.44
2017-08-06T08:34:48.153Z,68.44
2017-08-06T08:35:57.062Z,68.44
2017-08-06T08:37:06.287Z,68.44
2017-08-06T08:38:15.193Z,68.44
2017-08-06T08:39:24.094Z,68.54
2017-08-06T08:40:33.009Z,68.44
2017-08-06T08:41:42.234Z,68.44
2017-08-06T08:42:51.144Z,68.54
2017-08-06T08:44:00.051Z,68.35
2017-08-06T08:45:09.284Z,68.54
2017-08-06T08:46:18.185Z,68.44
2017-08-06T08:47:27.088Z,68.44
2017-08-06T08:48:35.998Z,68.54
2017-08-06T08:49:45.238Z,68.63
2017-08-06T08:50:54.139Z,68.63
2017-08-06T08:52:03.045Z,68.35
2017-08-06T08:53:11.955Z,68.44
2017-08-06T08:54:20.854Z,68.25
2017-08-06T08:55:29.761Z,68.05
2017-08-06T08:56:38.676Z,68.25
2017-08-06T08:57:47.582Z,68.25
2017-08-06T08:58:56.487Z,68.15
2017-08-06T09:00:05.724Z,68.54
2017-08-06T09:01:14.623Z,68.44
2017-08-06T09:02:23.526Z,68.25
2017-08-06T09:03:32.428Z,68.44
2017-08-06T09:04:41.980Z,68.35
2017-08-06T09:05:50.889Z,68.25
2017-08-06T09:06:59.793Z,68.25
2017-08-06T09:08:08.696Z,68.44
2017-08-06T09:09:17.600Z,68.15
2017-08-06T09:10:26.504Z,68.54
2017-08-06T09:11:35.732Z,68.54
2017-08-06T09:12:44.961Z,68.35
2017-08-06T09:13:53.868Z,68.25
2017-08-06T09:15:02.769Z,68.54
2017-08-06T09:16:11.670Z,68.54
2017-08-06T09:17:20.904Z,68.44
2017-08-06T09:18:29.813Z,68.63
2017-08-06T09:19:38.725Z,68.35
2017-08-06T09:20:47.964Z,68.63
2017-08-06T09:21:56.869Z,68.54
2017-08-06T09:23:05.768Z,68.54
2017-08-06T09:24:14.673Z,68.05
2017-08-06T09:25:23.579Z,68.05
2017-08-06T09:26:32.478Z,68.05
2017-08-06T09:27:41.391Z,68.44
2017-08-06T09:28:50.303Z,68.05
2017-08-06T09:29:59.207Z,67.86
2017-08-06T09:31:08.107Z,67.96
2017-08-06T09:32:17.013Z,68.05
2017-08-06T09:33:25.924Z,67.96
2017-08-06T09:34:34.833Z,67.86
2017-08-06T09:35:43.740Z,67.76
2017-08-06T09:36:52.642Z,67.86
2017-08-06T09:38:01.547Z,67.96
2017-08-06T09:39:10.445Z,67.76
2017-08-06T09:40:19.353Z,67.99
2017-08-06T09:41:28.254Z,67.86
2017-08-06T09:42:37.165Z,67.86
2017-08-06T09:43:46.067Z,68.25
2017-08-06T09:44:54.968Z,67.99
2017-08-06T09:46:03.897Z,68.05
2017-08-06T09:47:12.807Z,68.05
2017-08-06T09:48:22.043Z,67.86
2017-08-06T09:49:30.947Z,67.96
2017-08-06T09:50:39.855Z,68.08
2017-08-06T09:51:48.757Z,67.99
2017-08-06T09:52:57.671Z,67.99
2017-08-06T09:54:06.901Z,68.15
2017-08-06T09:55:16.125Z,68.18
2017-08-06T09:56:25.032Z,67.99
2017-08-06T09:57:33.938Z,68.08
2017-08-06T09:58:42.843Z,68.18
2017-08-06T09:59:51.753Z,68.28
2017-08-06T10:01:00.653Z,68.28
2017-08-06T10:02:09.567Z,67.89
2017-08-06T10:03:18.479Z,68.18
2017-08-06T10:04:27.378Z,68.18
2017-08-06T10:05:36.277Z,68.28
2017-08-06T10:06:45.184Z,68.08
2017-08-06T10:07:54.093Z,68.18
2017-08-06T10:09:02.996Z,67.6
2017-08-06T10:10:11.911Z,67.7
2017-08-06T10:11:20.812Z,67.41
2017-08-06T10:12:29.719Z,67.41
2017-08-06T10:13:38.618Z,67.6
2017-08-06T10:14:47.531Z,67.6
2017-08-06T10:15:56.431Z,67.6
2017-08-06T10:17:05.328Z,67.6
2017-08-06T10:18:14.239Z,67.6
2017-08-06T10:19:23.158Z,67.7
2017-08-06T10:20:32.057Z,67.6
2017-08-06T10:21:40.960Z,67.6
2017-08-06T10:22:49.866Z,67.41
2017-08-06T10:23:58.775Z,67.7
2017-08-06T10:25:08.006Z,67.31
2017-08-06T10:26:16.908Z,67.6
2017-08-06T10:27:25.811Z,67.31
2017-08-06T10:28:34.725Z,67.6
2017-08-06T10:29:43.637Z,67.31
2017-08-06T10:30:52.863Z,67.5
2017-08-06T10:32:01.772Z,67.5
2017-08-06T10:33:10.677Z,67.5
2017-08-06T10:34:19.569Z,67.11
2017-08-06T10:35:28.480Z,67.21
2017-08-06T10:36:37.700Z,67.41
2017-08-06T10:37:46.610Z,67.5
2017-08-06T10:38:55.520Z,67.41
2017-08-06T10:40:04.432Z,67.6
2017-08-06T10:41:13.659Z,67.41
2017-08-06T10:42:22.568Z,67.41
2017-08-06T10:43:31.478Z,67.31
2017-08-06T10:44:40.377Z,67.41
2017-08-06T10:45:49.276Z,67.41
2017-08-06T10:46:58.182Z,67.5
2017-08-06T10:48:07.089Z,67.31
2017-08-06T10:49:16.006Z,67.41
2017-08-06T10:50:24.915Z,67.31
2017-08-06T10:51:33.836Z,67.31
2017-08-06T10:52:42.753Z,67.44
2017-08-06T10:53:51.653Z,67.7
2017-08-06T10:55:00.559Z,67.41
2017-08-06T10:56:09.464Z,67.41
2017-08-06T10:57:18.373Z,67.5
2017-08-06T10:58:27.280Z,67.41
2017-08-06T10:59:36.186Z,67.41
2017-08-06T11:00:45.087Z,67.6
2017-08-06T11:01:54.001Z,67.7
2017-08-06T11:03:02.920Z,67.41
2017-08-06T11:04:11.830Z,67.7
2017-08-06T11:05:20.744Z,67.6
2017-08-06T11:06:29.645Z,67.41
2017-08-06T11:07:38.556Z,67.6
2017-08-06T11:08:47.456Z,67.6
2017-08-06T11:09:56.369Z,67.7
2017-08-06T11:11:05.611Z,67.8
2017-08-06T11:12:14.518Z,67.6
2017-08-06T11:13:23.423Z,67.7
2017-08-06T11:14:32.342Z,67.5
2017-08-06T11:15:41.242Z,67.41
2017-08-06T11:16:50.147Z,67.6
2017-08-06T11:17:59.052Z,67.7
2017-08-06T11:19:07.955Z,67.21
2017-08-06T11:20:16.867Z,67.7
2017-08-06T11:21:26.095Z,67.21
2017-08-06T11:22:35.028Z,67.11
2017-08-06T11:23:43.929Z,67.41
2017-08-06T11:24:52.841Z,67.31
2017-08-06T11:26:01.740Z,66.96
2017-08-06T11:27:10.644Z,67.31
2017-08-06T11:28:19.556Z,66.82
2017-08-06T11:29:28.456Z,67.15
2017-08-06T11:30:37.369Z,67.15
2017-08-06T11:31:46.594Z,66.86
2017-08-06T11:32:55.507Z,66.96
2017-08-06T11:34:04.724Z,67.15
2017-08-06T11:35:13.635Z,66.96
2017-08-06T11:36:22.565Z,67.15
2017-08-06T11:37:31.472Z,67.11
2017-08-06T11:38:40.380Z,66.82
2017-08-06T11:39:49.280Z,67.15
2017-08-06T11:40:58.210Z,66.86
2017-08-06T11:42:07.111Z,66.96
2017-08-06T11:43:16.019Z,66.96
2017-08-06T11:44:24.925Z,67.15
2017-08-06T11:45:33.834Z,66.96
2017-08-06T11:46:42.731Z,67.15
2017-08-06T11:47:51.644Z,67.02
2017-08-06T11:49:00.544Z,67.15
2017-08-06T11:50:09.446Z,67.15
2017-08-06T11:51:18.359Z,67.15
2017-08-06T11:52:27.281Z,67.24
2017-08-06T11:53:36.512Z,67.24
2017-08-06T11:54:45.418Z,67.24
2017-08-06T11:55:54.323Z,67.24
2017-08-06T11:57:03.225Z,67.24
2017-08-06T11:58:12.139Z,67.05
2017-08-06T11:59:21.051Z,67.05
2017-08-06T12:00:29.947Z,66.86
2017-08-06T12:01:38.847Z,67.24
2017-08-06T12:02:47.753Z,67.24
2017-08-06T12:03:56.653Z,67.24
2017-08-06T12:05:05.562Z,67.05
2017-08-06T12:06:14.463Z,67.15
2017-08-06T12:07:23.368Z,67.05
2017-08-06T12:08:32.609Z,67.05
2017-08-06T12:09:41.517Z,67.05
2017-08-06T12:10:50.418Z,67.34
2017-08-06T12:11:59.322Z,67.34
2017-08-06T12:13:08.235Z,67.05
2017-08-06T12:14:17.157Z,67.24
2017-08-06T12:15:26.062Z,67.05
2017-08-06T12:16:34.970Z,67.05
2017-08-06T12:17:43.891Z,67.05
2017-08-06T12:18:52.820Z,66.96
2017-08-06T12:20:01.729Z,66.96
2017-08-06T12:21:10.636Z,67.05
2017-08-06T12:22:19.546Z,67.05
2017-08-06T12:23:28.442Z,67.24
2017-08-06T12:24:37.357Z,67.05
2017-08-06T12:25:46.260Z,67.15
2017-08-06T12:26:55.167Z,67.05
2017-08-06T12:28:04.072Z,66.96
2017-08-06T12:29:12.973Z,67.05
2017-08-06T12:30:21.888Z,67.05
2017-08-06T12:31:30.788Z,67.05
2017-08-06T12:32:39.695Z,67.05
2017-08-06T12:33:48.606Z,67.05
2017-08-06T12:34:57.506Z,67.15
2017-08-06T12:36:06.732Z,67.05
2017-08-06T12:37:15.640Z,66.99
2017-08-06T12:38:24.879Z,67.08
2017-08-06T12:39:33.789Z,67.05
2017-08-06T12:40:42.698Z,67.18
2017-08-06T12:41:51.594Z,67.05
2017-08-06T12:43:00.502Z,67.15
2017-08-06T12:44:09.402Z,67.24
2017-08-06T12:45:18.651Z,67.28
2017-08-06T12:46:27.558Z,67.15
2017-08-06T12:47:36.468Z,67.34
2017-08-06T12:48:45.373Z,66.69
2017-08-06T12:49:54.302Z,67.18
2017-08-06T12:51:03.208Z,67.08
2017-08-06T12:52:12.112Z,66.86
2017-08-06T12:53:21.357Z,67.18
2017-08-06T12:54:30.263Z,66.79
2017-08-06T12:55:39.168Z,67.08
2017-08-06T12:56:48.078Z,66.99
2017-08-06T12:57:56.989Z,66.79
2017-08-06T12:59:05.895Z,66.6
2017-08-06T13:00:14.804Z,66.79
2017-08-06T13:01:23.705Z,66.69
2017-08-06T13:02:32.611Z,66.6
2017-08-06T13:03:41.518Z,66.69
2017-08-06T13:04:50.749Z,66.99
2017-08-06T13:05:59.650Z,66.99
2017-08-06T13:07:08.559Z,66.6
2017-08-06T13:08:17.470Z,66.79
2017-08-06T13:09:26.382Z,66.89
2017-08-06T13:10:35.285Z,66.89
2017-08-06T13:11:44.191Z,66.89
2017-08-06T13:12:53.096Z,66.99
2017-08-06T13:14:02.003Z,66.89
2017-08-06T13:15:10.907Z,66.89
2017-08-06T13:16:19.811Z,66.99
2017-08-06T13:17:28.723Z,66.69
2017-08-06T13:18:37.624Z,66.6
2017-08-06T13:19:46.539Z,66.79
2017-08-06T13:20:55.439Z,67.02
2017-08-06T13:22:04.353Z,66.89
2017-08-06T13:23:13.260Z,66.89
2017-08-06T13:24:22.164Z,66.79
2017-08-06T13:25:31.074Z,66.53
2017-08-06T13:26:39.984Z,67.02
2017-08-06T13:27:48.883Z,66.44
2017-08-06T13:28:57.784Z,66.79
2017-08-06T13:30:07.020Z,66.93
2017-08-06T13:31:15.917Z,66.63
2017-08-06T13:32:24.827Z,66.53
2017-08-06T13:33:33.732Z,66.79
2017-08-06T13:34:42.637Z,66.93
2017-08-06T13:35:51.864Z,66.73
2017-08-06T13:37:00.771Z,66.63
2017-08-06T13:38:09.676Z,66.73
2017-08-06T13:39:18.587Z,66.63
2017-08-06T13:40:27.491Z,66.63
2017-08-06T13:41:36.401Z,66.73
2017-08-06T13:42:45.302Z,66.73
2017-08-06T13:43:54.208Z,66.73
2017-08-06T13:45:03.113Z,66.73
2017-08-06T13:46:12.023Z,66.73
2017-08-06T13:47:20.929Z,66.83
2017-08-06T13:48:29.835Z,66.93
2017-08-06T13:49:38.736Z,66.83
2017-08-06T13:50:47.969Z,66.73
2017-08-06T13:51:56.883Z,66.63
2017-08-06T13:53:05.778Z,67.02
2017-08-06T13:54:14.688Z,67.02
2017-08-06T13:55:23.594Z,66.93
2017-08-06T13:56:32.502Z,66.83
2017-08-06T13:57:41.409Z,66.93
2017-08-06T13:58:50.319Z,66.83
2017-08-06T13:59:59.219Z,67.02
2017-08-06T14:01:08.143Z,67.11
2017-08-06T14:02:17.044Z,66.73
2017-08-06T14:03:25.945Z,66.73
2017-08-06T14:04:34.854Z,66.96
2017-08-06T14:05:43.768Z,66.93
2017-08-06T14:06:52.668Z,66.96
2017-08-06T14:08:01.573Z,67.05
2017-08-06T14:09:10.478Z,67.15
2017-08-06T14:10:19.391Z,66.73
2017-08-06T14:11:28.298Z,66.76
2017-08-06T14:12:37.201Z,66.76
2017-08-06T14:13:46.105Z,66.47
2017-08-06T14:14:55.010Z,66.66
2017-08-06T14:16:03.924Z,66.76
2017-08-06T14:17:12.827Z,66.56
2017-08-06T14:18:21.734Z,66.96
2017-08-06T14:19:30.637Z,66.76
2017-08-06T14:20:39.543Z,66.86
2017-08-06T14:21:48.473Z,66.66
2017-08-06T14:22:57.380Z,66.76
2017-08-06T14:24:06.286Z,66.76
2017-08-06T14:25:15.197Z,66.56
2017-08-06T14:26:24.108Z,66.47
2017-08-06T14:27:33.031Z,66.17
2017-08-06T14:28:41.932Z,66.17
2017-08-06T14:29:50.850Z,66.47
2017-08-06T14:30:59.748Z,66.17
2017-08-06T14:32:08.667Z,66.27
2017-08-06T14:33:17.576Z,66.76
2017-08-06T14:34:26.482Z,66.17
2017-08-06T14:35:35.391Z,66.17
2017-08-06T14:36:44.306Z,66.86
2017-08-06T14:37:53.207Z,66.37
2017-08-06T14:39:02.118Z,66.56
2017-08-06T14:40:11.032Z,66.17
2017-08-06T14:41:19.937Z,66.08
2017-08-06T14:42:28.841Z,66.17
2017-08-06T14:43:37.745Z,66.37
2017-08-06T14:44:46.647Z,66.17
2017-08-06T14:45:55.557Z,66.17
2017-08-06T14:47:04.470Z,66.21
2017-08-06T14:48:13.374Z,66.41
2017-08-06T14:49:22.278Z,66.69
2017-08-06T14:50:31.177Z,66.11
2017-08-06T14:51:40.084Z,66.21
2017-08-06T14:52:48.993Z,66.02
2017-08-06T14:53:57.908Z,66.21